Thunder radar more information blitzortung!


Löydät sääaseman tiedot myös:

European Weather Network

Finland Weather Exchange

Weather Underground

AWEKAS



Weather Underground säähistoriasivu

Päivittäin yhteenveto Helmikuu 27, 2017 Yksiköt:  Englantilaiset    Metriset   Molemmat
« Edellinen Päivä
Seuraava Päivä »
Päivittäin Viikoittain Kuukausittain Vuosittain Mukautettu
  Korkea: Matala: Keskiarvo:
Lämpötila: TemperatureC °F -18.7 °F -10.1 °F
Kastepiste: DewpointC °F -20.4 °F -11.8 °F
Kosteus: Humidity % 78 % 87 %
Tuulen nopeus: WindSpeedKMH mph 0.0 mph 1.1 mph
Tuulenpuuska: WindSpeedGustKMH mph - -
Tuuli:- - SSE
Ilmanpaine: PressurehPa in 996.5 in -
Sade: 0.0 in    
Historical Graphs
 
 
Taulukkotiedot Helmikuu 27, 2017
Aika Lämpötila Kastepiste Ilmanpaine Tuuli Tuulen nopeus Tuulenpuuska Kosteus Sademäärä (tunneittain)
TemperatureC °F DewpointC °F PressurehPa in Calm     Humidity % HourlyPrecipMM in
00:00 -14.0 °F -15.4 °F 999.9 in Calm     89 % 0.0 in
00:15 -14.4 °F -16.0 °F 999.9 in Calm     88 % 0.0 in
00:30 -14.8 °F -16.4 °F 1000.2 in Calm     88 % 0.0 in
00:45 -15.2 °F -16.8 °F 1000.2 in Calm     88 % 0.0 in
01:00 -15.7 °F -17.3 °F 1000.2 in Calm     88 % 0.0 in
01:15 -15.9 °F -17.4 °F 1000.2 in Calm     88 % 0.0 in
01:30 -16.1 °F -17.6 °F 1000.2 in Calm     88 % 0.0 in
01:45 -16.4 °F -17.9 °F 1000.6 in Calm     88 % 0.0 in
02:00 -16.4 °F -18.0 °F 1000.6 in Calm     88 % 0.0 in
02:15 -16.2 °F -17.6 °F 1000.9 in Calm     89 % 0.0 in
02:30 -16.0 °F -17.4 °F 1000.6 in Calm     89 % 0.0 in
02:45 -16.1 °F -17.6 °F 1000.9 in Calm     88 % 0.0 in
03:00 -16.3 °F -17.9 °F 1000.9 in Calm     88 % 0.0 in
03:15 -16.4 °F -18.0 °F 1001.2 in Calm     88 % 0.0 in
03:30 -16.7 °F -18.2 °F 1000.9 in Calm     88 % 0.0 in
03:45 -17.0 °F -18.6 °F 1001.6 in Calm     87 % 0.0 in
04:00 -17.2 °F -18.8 °F 1001.6 in Calm     87 % 0.0 in
04:15 -17.2 °F -18.7 °F 1001.6 in Calm     88 % 0.0 in
04:30 -17.6 °F -19.2 °F 1001.9 in Calm     87 % 0.0 in
04:45 -17.7 °F -19.4 °F 1001.9 in Calm     87 % 0.0 in
05:00 -17.9 °F -19.6 °F 1001.9 in Calm     87 % 0.0 in
05:15 -18.2 °F -20.0 °F 1001.9 in Calm     86 % 0.0 in
05:30 -18.4 °F -20.2 °F 1001.9 in Calm     86 % 0.0 in
05:45 -18.6 °F -20.3 °F 1001.9 in Calm     86 % 0.0 in
06:00 -18.6 °F -20.2 °F 1002.3 in Calm     87 % 0.0 in
06:15 -18.5 °F -20.0 °F 1001.9 in Calm     88 % 0.0 in
06:30 -18.4 °F -20.1 °F 1001.9 in Calm     87 % 0.0 in
06:45 -18.6 °F -20.4 °F 1001.9 in Calm     86 % 0.0 in
07:00 -18.6 °F -20.2 °F 1002.3 in Calm     87 % 0.0 in
07:15 -18.7 °F -20.3 °F 1002.3 in Calm     87 % 0.0 in
07:30 -18.7 °F -20.3 °F 1002.3 in Calm     87 % 0.0 in
07:45 -18.6 °F -20.2 °F 1001.9 in Calm     87 % 0.0 in
08:00 -18.7 °F -20.3 °F 1001.9 in Calm     87 % 0.0 in
08:15 -18.7 °F -20.3 °F 1002.3 in Calm     87 % 0.0 in
08:30 -18.6 °F -20.2 °F 1002.3 in Calm     87 % 0.0 in
08:45 -18.4 °F -19.9 °F 1002.3 in Calm     88 % 0.0 in
09:00 -18.1 °F -19.6 °F 1002.3 in Calm     88 % 0.0 in
09:15 -17.8 °F -19.3 °F 1002.3 in Calm     88 % 0.0 in
09:30 -17.6 °F -19.1 °F 1002.3 in Calm     88 % 0.0 in
09:45 -16.0 °F -17.0 °F 1002.6 in WNW 1.6 mph 4.8 mph 92 % 0.0 in
10:00 -14.0 °F -14.9 °F 1002.6 in WSW 1.6 mph 4.8 mph 93 % 0.0 in
10:15 -12.8 °F -13.7 °F 1002.6 in SSW 1.6 mph 3.2 mph 93 % 0.0 in
10:30 -12.6 °F -13.9 °F 1002.6 in Calm   3.2 mph 90 % 0.0 in
10:45 -12.7 °F -14.0 °F 1002.6 in Calm   3.2 mph 90 % 0.0 in
11:00 -12.1 °F -13.3 °F 1002.3 in Calm     91 % 0.0 in
11:15 -11.1 °F -12.1 °F 1002.3 in Calm   4.8 mph 92 % 0.0 in
11:30 -10.2 °F -11.3 °F 1002.3 in Calm   4.8 mph 92 % 0.0 in
11:45 -9.4 °F -10.6 °F 1002.3 in Calm   4.8 mph 91 % 0.0 in
12:00 -8.8 °F -10.1 °F 1002.3 in SSE 3.2 mph 8.0 mph 90 % 0.0 in
12:15 -8.2 °F -9.5 °F 1001.9 in Calm   6.4 mph 90 % 0.0 in
12:30 -7.6 °F -9.3 °F 1001.9 in SSE 1.6 mph 8.0 mph 88 % 0.0 in
12:45 -7.2 °F -9.0 °F 1002.3 in SSE 1.6 mph 8.0 mph 87 % 0.0 in
13:00 -6.9 °F -8.9 °F 1001.9 in SSE 3.2 mph 9.7 mph 86 % 0.0 in
13:15 -6.7 °F -8.8 °F 1001.9 in South 3.2 mph 8.0 mph 85 % 0.0 in
13:30 -6.4 °F -8.6 °F 1002.3 in SE 1.6 mph 8.0 mph 85 % 0.0 in
13:45 -6.2 °F -8.5 °F 1001.9 in South 1.6 mph 11.3 mph 84 % 0.0 in
14:00 -5.8 °F -8.1 °F 1001.6 in SE 1.6 mph 12.9 mph 84 % 0.0 in
14:15 -5.5 °F -7.9 °F 1001.6 in SSE 1.6 mph 9.7 mph 83 % 0.0 in
14:30 -5.3 °F -7.6 °F 1001.6 in Calm   3.2 mph 84 % 0.0 in
14:45 -5.2 °F -7.4 °F 1001.6 in Calm   3.2 mph 84 % 0.0 in
15:00 -5.0 °F -7.3 °F 1001.6 in Calm     84 % 0.0 in
15:15 -4.8 °F -7.1 °F 1001.2 in Calm   6.4 mph 84 % 0.0 in
15:30 -4.5 °F -7.3 °F 1001.2 in South 1.6 mph 8.0 mph 81 % 0.0 in
15:45 -4.2 °F -7.0 °F 1000.9 in Calm   12.9 mph 81 % 0.0 in
16:00 -3.8 °F -6.8 °F 1000.6 in SSE 1.6 mph 11.3 mph 80 % 0.0 in
16:15 -3.7 °F -6.9 °F 1000.6 in South 3.2 mph 14.5 mph 78 % 0.0 in
16:30 -3.8 °F -6.9 °F 1000.2 in Calm   6.4 mph 79 % 0.0 in
16:45 -3.9 °F -6.8 °F 999.9 in SSE 1.6 mph 9.7 mph 80 % 0.0 in
17:00 -4.0 °F -6.9 °F 999.9 in SE 1.6 mph 8.0 mph 80 % 0.0 in
17:15 -4.1 °F -6.8 °F 999.5 in SSE 3.2 mph 11.3 mph 81 % 0.0 in
17:30 -3.9 °F -6.9 °F 999.5 in SSE 1.6 mph 12.9 mph 80 % 0.0 in
17:45 -3.8 °F -6.7 °F 999.5 in SSE 1.6 mph 9.7 mph 80 % 0.0 in
18:00 -3.9 °F -6.7 °F 999.2 in SSE 3.2 mph 14.5 mph 81 % 0.0 in
18:15 -3.9 °F -6.5 °F 999.2 in SSE 3.2 mph 11.3 mph 82 % 0.0 in
18:30 -3.9 °F -6.4 °F 998.9 in SE 1.6 mph 11.3 mph 83 % 0.0 in
18:45 -3.7 °F -6.0 °F 998.9 in SSE 1.6 mph 12.9 mph 84 % 0.0 in
19:00 -3.6 °F -5.7 °F 998.5 in SSE 3.2 mph 17.7 mph 85 % 0.0 in
19:15 -3.5 °F -5.4 °F 998.9 in SSE 1.6 mph 14.5 mph 87 % 0.0 in
19:30 -3.5 °F -5.1 °F 998.9 in SSE 1.6 mph 9.7 mph 89 % 0.0 in
19:45 -3.4 °F -4.8 °F 998.2 in SSE 3.2 mph 12.9 mph 90 % 0.0 in
20:00 -3.3 °F -4.6 °F 998.2 in SSE 3.2 mph 12.9 mph 91 % 0.0 in
20:15 -3.2 °F -4.4 °F 997.9 in South 3.2 mph 11.3 mph 91 % 0.0 in
20:30 -3.0 °F -4.3 °F 997.9 in South 4.8 mph 11.3 mph 91 % 0.0 in
20:45 -3.0 °F -4.3 °F 997.9 in South 1.6 mph 14.5 mph 91 % 0.0 in
21:00 -2.9 °F -4.1 °F 997.9 in SSE 3.2 mph 12.9 mph 92 % 0.0 in
21:15 -3.0 °F -4.0 °F 997.5 in SSE 1.6 mph 12.9 mph 93 % 0.0 in
21:30 -2.9 °F -3.9 °F 997.5 in South 1.6 mph 9.7 mph 93 % 0.0 in
21:45 -2.9 °F -3.8 °F 997.2 in South 1.6 mph 11.3 mph 94 % 0.0 in
22:00 -2.8 °F -3.6 °F 997.2 in SSE 1.6 mph 9.7 mph 94 % 0.0 in
22:15 -2.6 °F -3.4 °F 997.2 in South 3.2 mph 14.5 mph 94 % 0.0 in
22:30 -2.3 °F -3.1 °F 996.8 in SSE 3.2 mph 16.1 mph 94 % 0.0 in
22:45 -2.1 °F -2.9 °F 996.8 in South 4.8 mph 16.1 mph 94 % 0.0 in
23:00 -1.9 °F -2.7 °F 996.8 in South 3.2 mph 11.3 mph 94 % 0.0 in
23:15 -1.8 °F -2.6 °F 996.8 in SSW 3.2 mph 9.7 mph 94 % 0.0 in
23:30 -1.7 °F -2.5 °F 996.8 in SSW 1.6 mph 6.4 mph 94 % 0.0 in
23:45 -1.6 °F -2.4 °F 996.5 in SSE 3.2 mph 16.1 mph 94 % 0.0 in
Esan sääasema
Terveisin Weather Underground - 3 mb

Alkuperäinen skripti  Jim McMurry - jmcmurry@mwt.net Sovitettu myös templatelle  Wim van der Kuil - Leuven-Template.eu

Laitteet joita käytämme:

Sääasema
Davis VP2

Sääasemaohjelma
Cumulus

Sääaseman tietokone
Asus EeePC

Palveluntarjoaja
Suncomet

Davis VP2

Cumulus

Asus EeePC

Suncomet